Time;durP1;ratioP1;P1;durP2;ratioP2;P2;SDS_P1;SDS_P2;PMS_P1;PMS_P2;Temp;Humidity;BMP_temperature;BMP_pressure;BME280_temperature;BME280_humidity;BME280_pressure;Samples;Min_cycle;Max_cycle;Signal;HPM_P1;HPM_P2
2022/03/16 00:00:14;;;;;;;2.40;1.10;;;21.50;88.30;;;;;;5051408;28;20187;-78
2022/03/16 00:02:42;;;;;;;2.53;1.03;;;21.60;87.90;;;;;;5055327;28;20274;-79
2022/03/16 00:05:10;;;;;;;2.80;1.07;;;21.70;87.70;;;;;;5051233;28;20725;-79
2022/03/16 00:07:37;;;;;;;3.40;1.43;;;21.70;88.30;;;;;;5049582;28;20323;-82
2022/03/16 00:10:09;;;;;;;2.10;0.97;;;21.70;88.20;;;;;;5052573;28;20295;-80
2022/03/16 00:12:37;;;;;;;2.67;1.07;;;21.50;88.90;;;;;;5049099;28;20277;-77
2022/03/16 00:15:05;;;;;;;3.70;1.20;;;21.40;89.60;;;;;;5062848;28;20186;-77
2022/03/16 00:17:33;;;;;;;4.97;1.47;;;21.50;89.60;;;;;;5072416;28;20584;-77
2022/03/16 00:20:00;;;;;;;2.20;1.40;;;21.60;90.10;;;;;;5072147;28;20236;-76
2022/03/16 00:22:27;;;;;;;3.97;1.60;;;21.80;89.60;;;;;;5054745;28;20203;-76
2022/03/16 00:24:55;;;;;;;2.93;1.30;;;21.80;89.20;;;;;;5055923;28;20696;-75
2022/03/16 00:27:22;;;;;;;4.50;1.73;;;22.00;89.10;;;;;;5052735;28;20707;-75
2022/03/16 00:29:50;;;;;;;3.20;1.67;;;21.90;88.10;;;;;;5049804;28;20180;-76
2022/03/16 00:32:17;;;;;;;3.57;1.40;;;22.10;87.90;;;;;;5052693;28;20647;-76
2022/03/16 00:34:48;;;;;;;3.43;0.90;;;22.30;88.10;;;;;;5048120;28;20184;-76
2022/03/16 00:37:15;;;;;;;7.53;1.33;;;22.50;87.90;;;;;;5065168;28;20233;-77
2022/03/16 00:39:42;;;;;;;2.73;1.20;;;22.60;85.80;;;;;;5072401;28;20648;-77
2022/03/16 00:42:10;;;;;;;6.63;1.30;;;22.50;86.90;;;;;;5051257;28;20183;-78
2022/03/16 00:44:37;;;;;;;7.87;1.43;;;22.60;86.20;;;;;;5051561;28;20572;-77
2022/03/16 00:47:05;;;;;;;7.03;1.77;;;22.80;85.40;;;;;;5046784;28;20551;-77
2022/03/16 00:49:33;;;;;;;4.93;1.27;;;22.80;85.50;;;;;;5050173;28;20188;-78
2022/03/16 00:52:01;;;;;;;3.87;1.37;;;22.80;86.20;;;;;;5050146;28;20176;-78
2022/03/16 00:54:29;;;;;;;4.87;1.50;;;22.80;85.70;;;;;;5051756;28;20650;-77
2022/03/16 00:56:56;;;;;;;8.90;1.50;;;22.80;86.80;;;;;;5052122;28;20211;-80
2022/03/16 00:59:24;;;;;;;4.87;1.17;;;22.90;85.70;;;;;;5048612;28;20651;-74
2022/03/16 01:01:51;;;;;;;7.03;1.80;;;22.90;84.30;;;;;;5054840;28;20180;-75
2022/03/16 01:04:19;;;;;;;5.07;1.63;;;22.90;85.30;;;;;;5051634;28;20198;-75
2022/03/16 01:06:46;;;;;;;4.10;1.37;;;22.80;84.50;;;;;;5047856;28;20953;-75
2022/03/16 01:09:13;;;;;;;7.70;1.53;;;22.80;84.10;;;;;;5068306;28;20198;-75
2022/03/16 01:11:41;;;;;;;11.27;1.40;;;23.10;84.40;;;;;;5053508;28;20238;-75
2022/03/16 01:14:08;;;;;;;9.43;1.57;;;23.20;82.50;;;;;;5055119;28;20192;-73
2022/03/16 01:16:38;;;;;;;7.43;1.60;;;23.20;83.20;;;;;;5060181;28;20203;-75
2022/03/16 01:19:06;;;;;;;5.93;1.47;;;23.20;82.00;;;;;;5055829;28;20183;-75
2022/03/16 01:21:34;;;;;;;7.60;1.97;;;23.50;81.50;;;;;;5052253;28;20698;-75
2022/03/16 01:24:01;;;;;;;9.37;2.50;;;23.70;81.50;;;;;;5052701;28;20599;-73
2022/03/16 01:26:29;;;;;;;5.37;1.67;;;23.70;80.60;;;;;;5053244;28;20650;-74
2022/03/16 01:28:56;;;;;;;9.60;1.93;;;23.70;79.70;;;;;;5054433;28;20186;-72
2022/03/16 01:31:24;;;;;;;6.80;1.83;;;23.90;79.60;;;;;;5053023;28;20184;-73
2022/03/16 01:33:51;;;;;;;8.43;1.63;;;24.10;80.80;;;;;;5054209;28;20184;-73
2022/03/16 01:36:18;;;;;;;5.13;1.23;;;24.40;79.20;;;;;;5052572;28;20603;-74
2022/03/16 01:38:46;;;;;;;8.50;2.07;;;24.30;76.80;;;;;;5051889;28;20190;-73
2022/03/16 01:41:15;;;;;;;6.90;1.50;;;24.40;77.20;;;;;;5053129;28;20178;-76
2022/03/16 01:43:42;;;;;;;6.50;1.90;;;24.50;75.30;;;;;;5047570;28;20598;-75
2022/03/16 01:46:10;;;;;;;10.13;1.80;;;24.30;75.60;;;;;;5053379;28;20181;-73
2022/03/16 01:48:37;;;;;;;8.70;1.77;;;24.70;74.80;;;;;;5052947;28;20669;-75
2022/03/16 01:51:05;;;;;;;7.50;3.60;;;24.90;74.90;;;;;;5053307;28;20238;-76
2022/03/16 01:53:33;;;;;;;11.30;2.13;;;25.30;73.40;;;;;;5053401;28;20229;-75
2022/03/16 01:56:00;;;;;;;9.53;1.83;;;25.20;73.10;;;;;;5047548;28;20267;-74
2022/03/16 01:58:28;;;;;;;5.50;2.10;;;25.00;73.30;;;;;;5053423;28;20208;-75
2022/03/16 02:00:55;;;;;;;6.47;1.57;;;25.60;72.70;;;;;;5048277;28;20278;-75
2022/03/16 02:03:22;;;;;;;8.37;1.63;;;25.80;70.90;;;;;;5052428;28;20670;-76
2022/03/16 02:05:50;;;;;;;5.00;1.50;;;25.20;72.50;;;;;;5051687;28;20223;-77
2022/03/16 02:08:18;;;;;;;8.73;2.20;;;25.10;72.20;;;;;;5046072;28;20630;-76
2022/03/16 02:10:47;;;;;;;6.17;1.50;;;24.90;71.80;;;;;;5050584;28;20547;-78
2022/03/16 02:13:14;;;;;;;7.30;1.50;;;25.10;72.20;;;;;;5049033;28;20186;-73
2022/03/16 02:15:41;;;;;;;11.47;1.90;;;25.40;70.60;;;;;;5050839;28;20192;-74
2022/03/16 02:18:09;;;;;;;9.13;1.93;;;25.00;69.50;;;;;;5051130;28;20265;-75
2022/03/16 02:20:37;;;;;;;10.70;1.80;;;24.60;70.80;;;;;;5048402;28;20168;-76
2022/03/16 02:23:07;;;;;;;6.53;1.80;;;24.60;70.90;;;;;;5054214;28;20274;-76
2022/03/16 02:25:52;;;;;;;8.40;1.80;;;24.50;70.50;;;;;;5048117;28;20183;-77
2022/03/16 02:28:21;;;;;;;10.10;2.00;;;24.70;69.60;;;;;;5039100;28;20173;-77
2022/03/16 02:30:49;;;;;;;7.13;1.30;;;25.00;70.60;;;;;;5050046;28;20661;-77
2022/03/16 02:33:17;;;;;;;5.07;1.50;;;25.60;69.10;;;;;;5038382;28;20647;-80
2022/03/16 02:35:45;;;;;;;8.97;1.73;;;25.70;69.10;;;;;;5054229;28;20230;-78
2022/03/16 02:38:13;;;;;;;9.67;1.80;;;25.90;68.60;;;;;;5040047;28;20675;-79
2022/03/16 02:40:41;;;;;;;7.17;1.63;;;26.20;66.70;;;;;;5054991;28;20210;-77
2022/03/16 02:43:09;;;;;;;9.23;1.73;;;26.50;65.80;;;;;;5044737;28;20192;-79
2022/03/16 02:45:36;;;;;;;7.80;1.93;;;26.60;65.60;;;;;;5039998;28;20175;-76
2022/03/16 02:48:04;;;;;;;5.20;1.30;;;26.60;63.90;;;;;;5049233;28;20187;-77
2022/03/16 02:50:32;;;;;;;8.13;1.70;;;26.50;64.20;;;;;;5053327;28;20270;-75
2022/03/16 02:52:59;;;;;;;3.97;1.43;;;26.50;66.60;;;;;;5049454;28;20184;-78
2022/03/16 02:55:26;;;;;;;4.93;1.57;;;26.80;64.50;;;;;;5051049;28;20192;-80
2022/03/16 02:57:54;;;;;;;5.30;1.43;;;26.60;64.40;;;;;;5050938;28;20300;-79
2022/03/16 03:00:26;;;;;;;6.07;1.40;;;27.00;63.70;;;;;;5053766;28;20176;-77
2022/03/16 03:02:54;;;;;;;9.37;1.80;;;26.60;63.90;;;;;;5052397;28;20177;-78
2022/03/16 03:05:22;;;;;;;7.27;1.20;;;26.70;64.00;;;;;;5055365;28;20633;-79
2022/03/16 03:07:50;;;;;;;8.77;2.30;;;26.60;62.40;;;;;;5053995;28;20270;-82
2022/03/16 03:10:17;;;;;;;6.50;1.60;;;26.80;62.70;;;;;;5056046;28;20199;-80
2022/03/16 03:12:45;;;;;;;5.97;1.40;;;27.00;62.40;;;;;;5057094;28;20237;-82
2022/03/16 03:15:15;;;;;;;6.97;1.80;;;26.80;62.80;;;;;;5055730;28;20177;-82
2022/03/16 03:17:43;;;;;;;6.83;1.47;;;26.50;63.00;;;;;;5050071;28;20219;-81
2022/03/16 03:20:12;;;;;;;6.53;1.50;;;26.30;65.20;;;;;;5052774;28;20692;-80
2022/03/16 03:22:40;;;;;;;6.23;1.20;;;26.20;65.20;;;;;;5050216;28;20604;-81
2022/03/16 03:25:13;;;;;;;7.83;1.50;;;25.80;66.40;;;;;;5047842;28;20185;-78
2022/03/16 03:27:41;;;;;;;8.77;3.30;;;25.60;66.70;;;;;;5048453;28;20187;-79
2022/03/16 03:30:09;;;;;;;11.53;2.97;;;25.70;66.50;;;;;;5055822;28;20176;-79
2022/03/16 03:32:37;;;;;;;7.33;2.27;;;25.60;67.10;;;;;;5055937;28;20978;-83
2022/03/16 03:35:05;;;;;;;6.40;1.43;;;25.90;67.10;;;;;;5052436;28;20659;-82
2022/03/16 03:37:32;;;;;;;7.77;2.20;;;26.30;65.80;;;;;;5046837;28;20267;-81
2022/03/16 03:39:59;;;;;;;6.03;1.60;;;26.20;66.60;;;;;;5040688;28;20179;-77
2022/03/16 03:42:27;;;;;;;7.67;1.40;;;26.40;66.00;;;;;;5046664;28;20184;-80
2022/03/16 03:44:54;;;;;;;7.70;1.57;;;25.90;67.00;;;;;;5046158;28;20578;-80
2022/03/16 03:47:22;;;;;;;9.53;1.67;;;26.80;63.30;;;;;;5045874;28;20520;-81
2022/03/16 03:49:49;;;;;;;7.13;1.73;;;27.20;63.30;;;;;;5046183;28;20172;-80
2022/03/16 03:52:19;;;;;;;5.43;1.37;;;26.80;64.40;;;;;;5045584;28;20187;-83
2022/03/16 03:54:50;;;;;;;8.07;1.60;;;26.90;64.60;;;;;;5043768;28;20558;-79
2022/03/16 03:57:17;;;;;;;6.97;1.57;;;26.30;66.20;;;;;;5049224;28;20222;-81
2022/03/16 03:59:44;;;;;;;6.60;1.50;;;26.40;66.20;;;;;;5049981;28;20195;-80
2022/03/16 04:02:12;;;;;;;8.30;1.87;;;26.80;63.70;;;;;;5049903;28;20627;-81
2022/03/16 04:04:39;;;;;;;4.30;1.20;;;27.00;64.30;;;;;;5049179;28;20187;-80
2022/03/16 04:07:06;;;;;;;3.53;1.23;;;27.20;62.10;;;;;;5033589;28;20250;-81
2022/03/16 04:09:34;;;;;;;4.18;0.95;;;28.10;59.80;;;;;;5051454;28;20224;-81
2022/03/16 04:12:01;;;;;;;2.88;1.05;;;29.00;57.10;;;;;;5052938;28;20172;-80
2022/03/16 04:14:28;;;;;;;6.32;1.50;;;29.80;54.10;;;;;;5037182;28;20199;-81
2022/03/16 04:16:56;;;;;;;3.78;0.93;;;30.20;54.50;;;;;;5052744;28;20564;-81
2022/03/16 04:19:23;;;;;;;6.13;1.42;;;30.60;51.80;;;;;;5053531;28;20296;-79
2022/03/16 04:21:51;;;;;;;5.20;1.33;;;30.40;52.60;;;;;;5049302;28;20217;-80
2022/03/16 04:24:21;;;;;;;5.53;1.55;;;28.50;57.60;;;;;;5044596;28;20244;-81
2022/03/16 04:26:48;;;;;;;5.68;1.25;;;28.80;57.20;;;;;;5052150;28;20180;-79
2022/03/16 04:29:16;;;;;;;5.40;1.60;;;29.70;53.50;;;;;;5052244;28;20237;-78
2022/03/16 04:31:43;;;;;;;6.13;1.30;;;29.00;55.40;;;;;;5052523;28;20172;-79
2022/03/16 04:34:10;;;;;;;6.63;1.63;;;28.50;57.70;;;;;;5048299;28;20209;-78
2022/03/16 04:36:38;;;;;;;6.00;1.60;;;28.80;55.40;;;;;;5047955;28;20197;-79
2022/03/16 04:39:05;;;;;;;4.38;1.30;;;28.80;55.90;;;;;;5048380;28;20200;-77
2022/03/16 04:41:32;;;;;;;5.45;1.10;;;27.90;56.80;;;;;;5035342;28;20165;-77
2022/03/16 04:44:00;;;;;;;5.93;1.27;;;27.20;57.10;;;;;;5043609;28;20663;-79
2022/03/16 04:46:28;;;;;;;7.43;1.60;;;26.50;60.70;;;;;;5052144;28;20195;-76
2022/03/16 04:48:55;;;;;;;9.93;2.27;;;26.90;61.40;;;;;;5054022;28;20179;-77
2022/03/16 04:51:22;;;;;;;9.05;1.98;;;27.60;58.60;;;;;;5053016;28;20182;-78
2022/03/16 04:53:50;;;;;;;5.43;1.50;;;28.60;55.70;;;;;;5046581;28;20187;-76
2022/03/16 04:56:17;;;;;;;7.63;1.45;;;28.60;54.30;;;;;;5040772;28;20181;-79
2022/03/16 04:58:44;;;;;;;7.15;1.45;;;28.60;52.90;;;;;;5046238;28;20662;-78
2022/03/16 05:01:12;;;;;;;7.82;1.88;;;29.90;50.50;;;;;;5055598;28;20176;-78
2022/03/16 05:03:39;;;;;;;9.55;2.08;;;29.90;50.90;;;;;;5053319;28;20188;-78
2022/03/16 05:06:07;;;;;;;8.52;1.50;;;30.40;49.50;;;;;;5049545;28;20743;-77
2022/03/16 05:08:36;;;;;;;5.30;1.52;;;29.70;51.20;;;;;;5051772;28;20183;-76
2022/03/16 05:11:05;;;;;;;6.22;1.65;;;29.30;52.40;;;;;;5047993;28;20183;-75
2022/03/16 05:13:32;;;;;;;5.03;1.55;;;29.00;54.00;;;;;;5055233;28;20176;-78
2022/03/16 05:15:59;;;;;;;8.32;1.85;;;28.30;55.10;;;;;;5055356;28;20684;-77
2022/03/16 05:18:27;;;;;;;7.13;1.65;;;28.40;56.00;;;;;;5053980;28;20281;-81
2022/03/16 05:20:54;;;;;;;11.00;2.00;;;28.90;53.90;;;;;;5054698;28;20176;-76
2022/03/16 05:23:22;;;;;;;9.02;1.70;;;28.60;55.80;;;;;;5055123;28;20722;-80
2022/03/16 05:25:49;;;;;;;10.95;2.15;;;28.60;56.00;;;;;;5055284;28;20183;-75
2022/03/16 05:28:17;;;;;;;12.27;2.10;;;28.30;56.20;;;;;;5055118;28;20176;-79
2022/03/16 05:30:45;;;;;;;7.53;2.00;;;28.70;55.80;;;;;;5055029;28;20187;-77
2022/03/16 05:33:12;;;;;;;8.23;1.83;;;28.60;54.40;;;;;;5046761;28;20655;-81
2022/03/16 05:35:41;;;;;;;11.73;2.03;;;28.90;54.40;;;;;;5054370;28;20180;-76
2022/03/16 05:38:12;;;;;;;7.68;1.70;;;29.60;51.90;;;;;;5050579;28;20942;-80
2022/03/16 05:40:44;;;;;;;9.15;1.98;;;29.10;52.50;;;;;;5036609;28;20172;-78
2022/03/16 05:43:13;;;;;;;10.38;2.13;;;29.60;51.70;;;;;;5044181;28;20271;-78
2022/03/16 05:45:40;;;;;;;7.10;1.75;;;29.80;51.70;;;;;;5050229;28;20922;-77
2022/03/16 05:48:08;;;;;;;12.73;1.70;;;29.80;51.40;;;;;;5046970;28;20215;-77
2022/03/16 05:50:35;;;;;;;15.95;2.17;;;29.80;51.50;;;;;;5054500;28;20176;-78
2022/03/16 05:53:03;;;;;;;7.93;1.80;;;29.90;50.80;;;;;;5054210;28;20186;-76
2022/03/16 05:55:31;;;;;;;7.95;1.80;;;29.30;52.80;;;;;;5048784;28;20607;-78
2022/03/16 05:57:58;;;;;;;7.63;2.03;;;29.00;54.40;;;;;;5054474;28;20272;-77
2022/03/16 06:00:25;;;;;;;9.20;1.75;;;29.30;53.40;;;;;;5054169;28;20172;-78
2022/03/16 06:02:53;;;;;;;9.02;2.05;;;29.70;52.10;;;;;;5053650;28;20176;-75
2022/03/16 06:05:20;;;;;;;12.32;2.40;;;30.00;50.90;;;;;;5053898;28;20203;-75
2022/03/16 06:07:48;;;;;;;14.00;2.13;;;28.80;53.80;;;;;;5051543;28;20207;-78
2022/03/16 06:10:17;;;;;;;10.50;2.60;;;28.70;54.20;;;;;;5039383;28;20575;-77
2022/03/16 06:13:14;;;;;;;10.23;2.15;;;28.80;54.60;;;;;;5042817;28;20176;-77
2022/03/16 06:15:44;;;;;;;8.85;1.52;;;29.70;52.50;;;;;;5029009;28;20191;-83
2022/03/16 06:18:12;;;;;;;13.88;2.17;;;30.50;50.80;;;;;;5054558;28;20273;-83
2022/03/16 06:20:40;;;;;;;7.57;2.28;;;30.60;49.90;;;;;;5054282;28;20168;-78
2022/03/16 06:23:08;;;;;;;7.45;1.95;;;29.90;51.10;;;;;;5054581;28;20196;-76
2022/03/16 06:25:36;;;;;;;9.85;2.10;;;28.90;53.50;;;;;;5054318;28;20164;-78
2022/03/16 06:28:04;;;;;;;7.80;2.25;;;29.00;54.00;;;;;;5054428;28;20542;-79
2022/03/16 06:30:31;;;;;;;8.70;1.92;;;29.10;54.90;;;;;;5053967;28;20176;-78
2022/03/16 06:32:59;;;;;;;10.45;2.28;;;29.50;52.70;;;;;;5044487;28;20183;-77
2022/03/16 06:35:26;;;;;;;5.90;1.88;;;29.10;54.30;;;;;;5050541;28;20617;-79
2022/03/16 06:37:54;;;;;;;8.93;2.30;;;28.30;56.60;;;;;;5054090;28;20231;-79
2022/03/16 06:40:24;;;;;;;9.52;2.13;;;28.00;56.90;;;;;;5036468;28;20211;-76
2022/03/16 06:42:52;;;;;;;12.23;2.13;;;26.90;60.60;;;;;;5050564;28;20663;-80
2022/03/16 06:45:21;;;;;;;10.33;1.97;;;26.30;63.40;;;;;;5045944;28;20505;-78
2022/03/16 06:47:49;;;;;;;12.10;1.97;;;26.20;63.80;;;;;;5052693;28;20187;-76
2022/03/16 06:50:18;;;;;;;10.77;2.07;;;25.80;65.10;;;;;;5032918;28;20191;-78
2022/03/16 06:52:46;;;;;;;8.43;1.80;;;25.40;65.90;;;;;;5036792;28;20176;-76
2022/03/16 06:55:13;;;;;;;14.90;2.30;;;25.30;66.90;;;;;;5048905;28;20180;-79
2022/03/16 06:57:41;;;;;;;12.73;3.00;;;25.20;67.40;;;;;;5053641;28;20211;-79
2022/03/16 07:00:12;;;;;;;13.70;2.63;;;25.10;68.30;;;;;;5040800;28;20188;-79
2022/03/16 07:03:12;;;;;;;11.27;2.07;;;24.80;68.60;;;;;;5055139;28;20237;-81
2022/03/16 07:05:41;;;;;;;15.90;2.70;;;24.60;69.80;;;;;;5037955;28;20368;-81
2022/03/16 07:08:11;;;;;;;17.70;2.83;;;24.40;69.90;;;;;;5052377;28;20195;-80
2022/03/16 07:10:41;;;;;;;14.30;2.37;;;24.40;70.20;;;;;;5049760;28;20250;-78
2022/03/16 07:13:10;;;;;;;12.30;3.17;;;24.40;70.50;;;;;;5044115;28;20561;-78
2022/03/16 07:15:40;;;;;;;10.83;2.30;;;24.40;71.10;;;;;;5039237;28;20185;-75
2022/03/16 07:18:07;;;;;;;15.17;2.50;;;24.30;71.10;;;;;;5048352;28;20299;-80
2022/03/16 07:20:35;;;;;;;7.60;2.30;;;24.10;72.10;;;;;;5033081;28;20188;-78
2022/03/16 07:23:02;;;;;;;13.60;2.63;;;24.10;71.90;;;;;;5034727;28;20181;-74
2022/03/16 07:25:30;;;;;;;13.70;2.40;;;24.00;72.70;;;;;;5050571;28;20180;-79
2022/03/16 07:27:57;;;;;;;11.73;2.40;;;24.00;73.60;;;;;;5051457;28;20203;-73
2022/03/16 07:30:25;;;;;;;16.83;2.80;;;23.90;73.80;;;;;;5051939;28;20183;-76
2022/03/16 07:32:53;;;;;;;16.03;3.23;;;23.80;74.60;;;;;;5052468;28;20700;-77
2022/03/16 07:35:26;;;;;;;14.30;2.57;;;23.80;75.00;;;;;;5045503;28;20177;-77
2022/03/16 07:37:55;;;;;;;12.83;2.30;;;23.80;75.10;;;;;;5047954;28;20247;-76
2022/03/16 07:40:24;;;;;;;19.13;3.00;;;23.80;75.30;;;;;;5033499;28;20185;-75
2022/03/16 07:42:52;;;;;;;14.73;2.60;;;23.80;75.50;;;;;;5051619;28;20188;-79
2022/03/16 07:45:20;;;;;;;12.30;2.50;;;23.70;75.10;;;;;;5052364;28;20179;-77
2022/03/16 07:47:49;;;;;;;16.57;2.63;;;23.70;75.20;;;;;;5041565;28;20180;-80
2022/03/16 07:50:17;;;;;;;11.33;2.37;;;23.70;74.90;;;;;;5046926;28;20226;-80
2022/03/16 07:52:45;;;;;;;19.47;3.57;;;23.60;74.60;;;;;;5064480;28;20184;-77
2022/03/16 07:55:16;;;;;;;20.87;3.13;;;23.60;74.70;;;;;;5032642;28;20180;-76
2022/03/16 07:57:44;;;;;;;17.43;2.63;;;23.60;74.90;;;;;;5032868;28;20212;-75
2022/03/16 08:00:13;;;;;;;13.77;2.97;;;23.60;75.70;;;;;;5032862;28;20168;-77
2022/03/16 08:02:43;;;;;;;15.93;3.23;;;23.60;76.20;;;;;;5047397;28;20530;-78
2022/03/16 08:05:11;;;;;;;15.73;3.03;;;23.50;76.40;;;;;;5050320;28;20187;-77
2022/03/16 08:07:39;;;;;;;13.10;3.53;;;23.40;76.50;;;;;;5050379;28;20288;-79
2022/03/16 08:10:06;;;;;;;14.53;2.80;;;23.30;76.90;;;;;;5051768;28;20184;-78
2022/03/16 08:12:34;;;;;;;18.47;3.10;;;23.30;77.30;;;;;;5034503;28;20288;-79
2022/03/16 08:15:01;;;;;;;15.83;3.93;;;23.20;77.40;;;;;;5036702;28;20195;-80
2022/03/16 08:17:29;;;;;;;16.33;3.10;;;23.20;77.50;;;;;;5047570;28;20636;-81
2022/03/16 08:19:57;;;;;;;17.20;3.90;;;23.30;77.50;;;;;;5045250;28;20169;-83
2022/03/16 08:22:42;;;;;;;9.83;2.23;;;23.20;77.60;;;;;;5045425;28;20180;-81
2022/03/16 08:25:12;;;;;;;15.27;3.13;;;23.10;77.50;;;;;;5047059;28;20179;-79
2022/03/16 08:27:40;;;;;;;24.67;3.73;;;23.10;77.50;;;;;;5032649;28;20171;-82
2022/03/16 08:30:09;;;;;;;14.87;3.13;;;23.00;77.50;;;;;;5048011;28;20187;-79
2022/03/16 08:32:37;;;;;;;18.07;4.10;;;23.00;77.90;;;;;;5052392;28;20260;-84
2022/03/16 08:35:08;;;;;;;18.83;3.23;;;23.00;78.20;;;;;;5052573;28;20176;-82
2022/03/16 08:37:36;;;;;;;11.43;2.70;;;23.00;77.80;;;;;;5048519;28;20239;-80
2022/03/16 08:40:08;;;;;;;16.77;3.53;;;22.90;78.00;;;;;;5052024;28;20168;-82
2022/03/16 08:42:35;;;;;;;16.43;3.23;;;22.90;78.10;;;;;;5052074;28;20167;-81
2022/03/16 08:45:03;;;;;;;12.87;3.00;;;22.90;78.40;;;;;;5051731;28;20179;-82
2022/03/16 08:47:31;;;;;;;16.83;2.60;;;22.90;78.20;;;;;;5050419;28;20266;-83
2022/03/16 08:49:58;;;;;;;16.77;4.10;;;23.00;78.10;;;;;;5072506;28;20250;-81
2022/03/16 08:52:25;;;;;;;19.23;3.60;;;23.00;78.10;;;;;;5072239;28;20232;-82
2022/03/16 08:54:53;;;;;;;13.13;3.23;;;23.00;78.10;;;;;;5071922;28;20167;-83
2022/03/16 08:57:23;;;;;;;21.57;3.63;;;23.00;78.30;;;;;;5057170;28;20663;-79
2022/03/16 08:59:51;;;;;;;17.27;2.93;;;23.00;77.90;;;;;;5067074;28;20642;-83
2022/03/16 09:02:18;;;;;;;19.67;3.67;;;23.00;77.90;;;;;;5050864;28;20180;-83
2022/03/16 09:04:45;;;;;;;15.23;3.43;;;23.00;77.90;;;;;;5048994;28;20184;-81
2022/03/16 09:07:13;;;;;;;22.13;3.27;;;23.00;77.90;;;;;;5051862;28;20216;-82
2022/03/16 09:09:41;;;;;;;22.40;3.23;;;23.00;78.00;;;;;;5051957;28;20651;-81
2022/03/16 09:12:09;;;;;;;15.30;2.93;;;23.00;78.30;;;;;;5050585;28;20176;-79
2022/03/16 09:14:37;;;;;;;17.40;3.20;;;22.90;78.40;;;;;;5052080;28;20313;-81
2022/03/16 09:17:06;;;;;;;16.93;3.63;;;22.90;78.60;;;;;;5051940;28;20203;-82
2022/03/16 09:19:34;;;;;;;19.53;3.43;;;22.90;78.90;;;;;;5043961;28;20185;-80
2022/03/16 09:22:04;;;;;;;12.50;3.03;;;22.80;79.10;;;;;;5050313;28;20669;-81
2022/03/16 09:24:32;;;;;;;13.97;2.80;;;22.80;79.50;;;;;;5043458;28;20180;-79
2022/03/16 09:26:59;;;;;;;20.50;3.13;;;22.80;79.80;;;;;;5044368;28;20164;-80
2022/03/16 09:29:30;;;;;;;10.10;2.47;;;22.80;80.20;;;;;;5048062;28;20258;-82
2022/03/16 09:31:58;;;;;;;18.93;2.80;;;22.80;80.30;;;;;;5046722;28;20185;-83
2022/03/16 09:34:25;;;;;;;11.90;2.83;;;22.60;80.40;;;;;;5042070;28;20207;-82
2022/03/16 09:36:53;;;;;;;9.67;2.53;;;22.60;80.70;;;;;;5039251;28;20680;-83
2022/03/16 09:39:20;;;;;;;20.37;3.80;;;22.60;80.90;;;;;;5052486;28;20279;-83
2022/03/16 09:41:47;;;;;;;15.53;3.10;;;22.50;80.90;;;;;;5044026;28;20185;-81
2022/03/16 09:44:15;;;;;;;13.53;2.77;;;22.50;81.30;;;;;;5041743;28;20539;-81
2022/03/16 09:46:44;;;;;;;17.03;3.17;;;22.50;81.60;;;;;;5040984;28;20183;-83
2022/03/16 09:49:15;;;;;;;13.13;2.80;;;22.40;81.70;;;;;;5043436;28;20172;-80
2022/03/16 09:51:42;;;;;;;15.17;3.50;;;22.40;81.90;;;;;;5038585;28;20176;-83
2022/03/16 09:54:10;;;;;;;21.90;2.93;;;22.40;82.00;;;;;;5038242;28;20183;-79
2022/03/16 09:56:38;;;;;;;14.00;3.03;;;22.30;82.00;;;;;;5052334;28;20261;-82
2022/03/16 09:59:06;;;;;;;19.10;3.20;;;22.30;82.30;;;;;;5055326;28;20180;-82
2022/03/16 10:01:35;;;;;;;12.67;2.80;;;22.30;82.20;;;;;;5037933;28;20219;-82
2022/03/16 10:04:06;;;;;;;13.00;2.60;;;22.40;82.40;;;;;;5043239;28;20623;-81
2022/03/16 10:06:43;;;;;;;10.50;3.20;;;22.40;82.50;;;;;;5040716;28;20224;-79
2022/03/16 10:15:19;;;;;;;13.73;2.57;;;22.30;81.80;;;;;;5044509;28;20306;-81
2022/03/16 10:17:59;;;;;;;13.43;2.63;;;22.40;82.00;;;;;;5052632;28;20330;-81
2022/03/16 10:20:38;;;;;;;10.93;2.80;;;22.40;82.00;;;;;;5040210;28;20204;-82
2022/03/16 10:23:10;;;;;;;16.30;4.37;;;22.30;82.20;;;;;;5053551;28;20175;-83
2022/03/16 10:25:45;;;;;;;12.40;3.80;;;22.30;82.40;;;;;;5045576;28;20229;-82
2022/03/16 10:28:42;;;;;;;14.13;3.43;;;22.30;82.60;;;;;;5035399;28;20179;-79
2022/03/16 10:31:11;;;;;;;13.57;3.60;;;22.30;82.60;;;;;;5039038;28;20188;-83
2022/03/16 10:33:46;;;;;;;14.10;3.17;;;22.30;82.60;;;;;;5047610;28;20207;-79
2022/03/16 10:36:19;;;;;;;13.20;2.70;;;22.30;82.70;;;;;;5050691;28;20572;-82
2022/03/16 10:39:03;;;;;;;14.13;2.80;;;22.20;81.90;;;;;;5036310;28;20292;-81
2022/03/16 10:47:24;;;;;;;12.60;3.17;;;22.20;81.80;;;;;;5039478;28;20256;-82
2022/03/16 10:50:06;;;;;;;18.50;2.80;;;22.20;82.00;;;;;;5046816;28;20183;-77
2022/03/16 10:52:34;;;;;;;12.87;2.70;;;22.20;82.30;;;;;;5053907;28;20171;-78
2022/03/16 10:55:05;;;;;;;18.80;4.30;;;22.20;82.40;;;;;;5047455;28;20230;-78
2022/03/16 10:57:33;;;;;;;19.63;4.27;;;22.20;82.40;;;;;;5036402;28;20552;-81
2022/03/16 11:00:02;;;;;;;15.93;2.60;;;22.20;82.60;;;;;;5047946;28;20180;-79
2022/03/16 11:02:34;;;;;;;9.70;2.30;;;22.10;82.60;;;;;;5054021;28;20225;-81
2022/03/16 11:05:02;;;;;;;14.23;2.70;;;22.20;82.50;;;;;;5053214;28;20249;-84
2022/03/16 11:07:30;;;;;;;13.37;3.60;;;22.10;82.50;;;;;;5046408;28;20224;-83
2022/03/16 11:09:58;;;;;;;19.50;5.33;;;22.10;82.70;;;;;;5045871;28;20176;-84
2022/03/16 11:15:12;;;;;;;20.13;8.60;;;22.10;83.10;;;;;;5045679;28;20267;-81
2022/03/16 11:17:42;;;;;;;13.57;3.60;;;22.00;83.20;;;;;;5047906;28;20330;-82
2022/03/16 11:20:10;;;;;;;15.23;2.80;;;21.90;83.10;;;;;;5039541;28;20189;-83
2022/03/16 11:26:07;;;;;;;13.27;2.67;;;21.90;84.00;;;;;;5053378;28;20190;-78
2022/03/16 11:29:02;;;;;;;13.20;2.60;;;21.90;84.10;;;;;;5048464;28;20200;-81
2022/03/16 11:31:34;;;;;;;8.57;2.03;;;21.80;84.20;;;;;;5048088;28;20237;-83
2022/03/16 11:34:10;;;;;;;14.47;2.73;;;21.80;84.10;;;;;;5053153;28;20176;-81
2022/03/16 11:36:41;;;;;;;13.13;2.73;;;21.80;84.50;;;;;;5053036;28;20819;-83
2022/03/16 11:39:21;;;;;;;11.50;2.40;;;21.80;84.80;;;;;;5053283;28;20176;-81
2022/03/16 11:41:50;;;;;;;13.60;2.70;;;21.70;84.90;;;;;;5039037;28;20185;-83
2022/03/16 11:44:26;;;;;;;12.50;2.33;;;21.60;85.20;;;;;;5052888;28;20229;-80
2022/03/16 11:46:55;;;;;;;16.57;6.30;;;21.70;85.50;;;;;;5049176;28;20188;-82
2022/03/16 11:49:30;;;;;;;17.23;9.57;;;21.70;85.40;;;;;;5033077;28;20176;-80
2022/03/16 11:52:02;;;;;;;16.47;3.00;;;21.70;85.30;;;;;;5033566;28;20278;-82
2022/03/16 11:54:49;;;;;;;12.33;2.80;;;21.70;85.20;;;;;;5033348;28;20176;-79
2022/03/16 11:57:49;;;;;;;9.03;2.40;;;21.70;85.20;;;;;;5048618;28;20211;-82
2022/03/16 12:00:17;;;;;;;10.83;2.00;;;21.70;85.20;;;;;;5067193;28;20190;-83
2022/03/16 12:02:58;;;;;;;12.77;2.17;;;21.60;85.10;;;;;;5068967;28;20175;-81
2022/03/16 12:05:30;;;;;;;8.50;2.33;;;21.50;85.20;;;;;;5068781;28;20168;-81
2022/03/16 12:08:14;;;;;;;13.30;2.37;;;21.50;85.50;;;;;;5054307;28;20188;-82
2022/03/16 12:10:46;;;;;;;7.90;1.87;;;21.40;85.50;;;;;;5048982;28;20639;-79
2022/03/16 12:13:16;;;;;;;12.50;2.37;;;21.30;85.60;;;;;;5050800;28;20203;-80
2022/03/16 12:15:46;;;;;;;9.73;2.77;;;21.30;85.90;;;;;;5036388;28;20177;-81
2022/03/16 12:18:16;;;;;;;11.67;2.40;;;21.30;86.10;;;;;;5048119;28;20236;-80
2022/03/16 12:20:54;;;;;;;9.03;1.93;;;21.30;86.20;;;;;;5037302;28;20200;-78
2022/03/16 12:23:41;;;;;;;12.47;2.67;;;21.20;86.10;;;;;;5053105;28;20171;-79
2022/03/16 12:26:09;;;;;;;9.37;1.90;;;21.20;86.20;;;;;;5050589;28;20183;-79
2022/03/16 12:31:22;;;;;;;11.47;2.30;;;21.20;86.60;;;;;;5033274;28;20613;-78
2022/03/16 12:33:56;;;;;;;15.20;2.53;;;21.20;86.50;;;;;;5041303;28;20520;-79
2022/03/16 12:36:25;;;;;;;16.03;2.40;;;21.20;86.60;;;;;;5033068;28;20185;-78
2022/03/16 12:39:10;;;;;;;10.23;2.17;;;21.20;86.50;;;;;;5039087;28;20230;-77
2022/03/16 12:44:23;;;;;;;10.87;2.40;;;21.20;86.70;;;;;;5054730;28;20186;-78
2022/03/16 12:47:06;;;;;;;10.60;2.37;;;21.20;87.10;;;;;;5044530;28;20234;-76
2022/03/16 12:49:43;;;;;;;8.37;1.90;;;21.20;87.10;;;;;;5032809;28;20670;-76
2022/03/16 12:52:11;;;;;;;10.00;2.10;;;21.20;87.30;;;;;;5033847;28;20176;-76
2022/03/16 12:54:41;;;;;;;12.63;2.37;;;21.20;87.50;;;;;;5049698;28;20259;-81
2022/03/16 12:57:15;;;;;;;8.70;2.47;;;21.20;87.50;;;;;;5040483;28;20218;-78
2022/03/16 12:59:57;;;;;;;17.27;2.47;;;21.10;87.40;;;;;;5044209;28;20178;-81
2022/03/16 13:02:29;;;;;;;15.93;2.70;;;21.20;87.40;;;;;;5056505;28;20172;-79
2022/03/16 13:04:58;;;;;;;16.13;2.20;;;21.10;87.30;;;;;;5056033;28;20195;-78
2022/03/16 13:07:27;;;;;;;10.77;2.03;;;21.00;87.50;;;;;;5054449;28;20236;-81
2022/03/16 13:09:55;;;;;;;11.67;2.73;;;21.00;87.70;;;;;;5043792;28;20184;-80
2022/03/16 13:12:26;;;;;;;10.33;2.27;;;20.90;88.00;;;;;;5038857;28;20256;-80
2022/03/16 13:14:57;;;;;;;11.50;2.20;;;20.90;88.10;;;;;;5055403;28;20164;-80
2022/03/16 13:17:34;;;;;;;16.67;2.50;;;20.90;88.10;;;;;;5050383;28;20218;-78